Tropical Cyclones
[Index]
Main Index Home Page Stock Weather Photos Extreme Storms Discussion Storm News and Storm Chasing Reports Tropical Cyclones / Hurricanes / Typhoons Weather Data and Links Wild Fires / Bushfires Weather Observation Techniques Weather Picture Catalogue Tornado Pictures and Reports Stock Video Footage and DVDs for sale
Season 1990-1991 Tropical Cyclone ERROL Track Map
Season 1990-1991 Summaries: [BoM-AU] [JTWC-AU] [JTWC-SIO] [JTWC-SPAC] [JTWC-SH]
<<- Previous TC | BoM 1990-1991 Season | Next TC ->>

click for intensity scale information  Lat/long Grid: Show Hide

 Date Labels: Show Hide

Bureau of Meteorology Tropical Cyclone Data

Name: ERROL
Number: 739 / 199091_07

23 Mar 1991 12:00 UTC to 31 Mar 1991 06:00 UTC

    date/time    lat    long    hPa   cat  kts
1991-03-23 12   11.0    99.6   1000         31          
1991-03-23 18   11.0    99.6    998         35          
1991-03-24 00   11.0    99.5    996         37          
1991-03-24 06   11.0    99.5    993    1    41          
1991-03-24 12   10.8    99.0    988    1    49          
1991-03-24 18   10.7    99.0    982    2    58          
1991-03-25 00   10.5    99.0    976    2    66          
1991-03-25 06   10.6    99.4    970    3    74          
1991-03-25 12   10.6    99.7    965    3    80          
1991-03-25 18   10.6   100.0    960    3    84          
1991-03-26 00   10.6   100.5    955    4    89          
1991-03-26 06   11.2   100.6    950    4    95          
1991-03-26 12   12.0   101.1    955    4    89          
1991-03-26 18   12.1   101.3    955    4    89          
1991-03-27 00   12.2   101.5    955    4    89          
1991-03-27 06   12.7   101.6    960    3    84          
1991-03-27 12   13.4   101.7    965    3    80          
1991-03-27 18   13.5   101.8    970    3    74          
1991-03-28 00   13.7   101.8    975    2    66          
1991-03-28 06   14.1   100.9    975    2    66          
1991-03-28 12   14.3   100.1    975    2    66          
1991-03-28 18   14.5    99.3    978    2    64          
1991-03-29 00   14.9    98.4    980    2    60          
1991-03-29 06   15.5    97.4    985    2    54          
1991-03-29 12   15.8    96.5    990    1    47          
1991-03-29 18   16.1    95.5    993    1    41          
1991-03-30 00   16.3    94.5    996         37          
1991-03-30 06   16.5    93.8   1000         31          
1991-03-30 12   16.8    93.4   1000         31          
1991-03-30 18   17.0    93.1   1002         27          
1991-03-31 00   17.2    92.8   1003         27          
1991-03-31 06   17.4    92.6   1004         25          
Winds are 10-min average.

Tropical cyclone tracks developed by Michael Bath using data from the Bureau of Meteorology and Google Maps.


[Australian Severe Weather index] [Copyright Notice] [Email Contacts] [Search This Site] [Privacy Policy]
Document: tropical_cyclone_errol.htm Updated: 30 May 2013